Terminal Aerodrome Forecast
Issued by NWS Charleston, WV

Home | Current Version | Previous Version | Text Only | Print | Product List | Glossary On
Versions: 1 2 3 4 5 6 7 8 9 10 11 12 13 14 15 16 17 18 19 20 21 22 23
000
FTUS41 KRLX 011410 AAA
TAFCRW
TAF AMD
KCRW 011410Z 0114/0212 VRB03KT 6SM BR BKN015
     FM011600 26006KT P6SM SCT020
     FM020200 26005KT 6SM BR VCTS BKN050CB
     FM020700 VRB04KT 3SM BR VCTS BKN070CB=

USA.gov is the U.S. government's official web portal to all federal, state and local government web resources and services.